Time;durP1;ratioP1;P1;durP2;ratioP2;P2;SDS_P1;SDS_P2;PMS_P1;PMS_P2;Temp;Humidity;BMP_temperature;BMP_pressure;BME280_temperature;BME280_humidity;BME280_pressure;Samples;Min_cycle;Max_cycle;Signal;HPM_P1;HPM_P2
2023/06/15 00:00:56;;;;;;;4.18;2.83;;;;;;;16.90;67.27;100471.81;4944096;28;20047;-69
2023/06/15 00:03:23;;;;;;;3.25;2.95;;;;;;;16.90;68.16;100471.81;4946835;28;20050;-69
2023/06/15 00:05:51;;;;;;;4.85;2.70;;;;;;;16.88;67.14;100473.75;4922546;28;20039;-69
2023/06/15 00:08:18;;;;;;;2.90;2.65;;;;;;;16.83;68.09;100482.13;4927237;28;20130;-69
2023/06/15 00:10:45;;;;;;;3.22;2.70;;;;;;;16.77;68.93;100473.66;4945407;28;20052;-69
2023/06/15 00:13:12;;;;;;;3.10;2.80;;;;;;;16.78;69.29;100472.72;4944435;28;20047;-69
2023/06/15 00:15:41;;;;;;;3.60;2.80;;;;;;;16.83;69.91;100476.78;4939716;28;20159;-70
2023/06/15 00:18:08;;;;;;;3.15;2.85;;;;;;;16.86;69.53;100478.34;4946562;28;20048;-68
2023/06/15 00:20:35;;;;;;;3.65;3.00;;;;;;;16.88;69.73;100483.59;4929824;28;20055;-69
2023/06/15 00:23:04;;;;;;;4.75;3.25;;;;;;;16.86;69.03;100475.66;4932046;28;20168;-70
2023/06/15 00:25:33;;;;;;;3.75;2.80;;;;;;;16.81;69.70;100478.69;4939678;28;20087;-69
2023/06/15 00:28:01;;;;;;;2.90;2.60;;;;;;;16.78;70.10;100486.06;4942908;28;20051;-69
2023/06/15 00:30:28;;;;;;;4.32;2.88;;;;;;;16.75;69.62;100479.13;4945294;28;20055;-69
2023/06/15 00:32:55;;;;;;;3.30;3.00;;;;;;;16.70;69.91;100473.22;4944108;28;20055;-69
2023/06/15 00:35:22;;;;;;;3.60;2.63;;;;;;;16.73;69.88;100480.19;4943010;28;20070;-70
2023/06/15 00:37:50;;;;;;;3.00;2.55;;;;;;;16.66;70.28;100473.59;4944332;28;20047;-69
2023/06/15 00:40:21;;;;;;;4.38;3.03;;;;;;;16.63;70.53;100480.00;4942981;28;20513;-69
2023/06/15 00:42:48;;;;;;;4.50;2.80;;;;;;;16.61;70.95;100481.88;4927496;28;20055;-69
2023/06/15 00:45:15;;;;;;;3.05;2.67;;;;;;;16.56;70.91;100473.31;4929801;28;20082;-70
2023/06/15 00:47:43;;;;;;;5.10;2.90;;;;;;;16.59;71.65;100477.59;4931025;28;20536;-70
2023/06/15 00:50:14;;;;;;;3.80;2.75;;;;;;;16.60;71.86;100484.66;4932928;28;20796;-69
2023/06/15 00:52:43;;;;;;;3.38;2.95;;;;;;;16.64;71.13;100483.53;4934371;29;20085;-69
2023/06/15 00:55:12;;;;;;;4.25;2.85;;;;;;;16.62;70.98;100488.94;4946618;28;20058;-71
2023/06/15 00:57:44;;;;;;;3.40;3.10;;;;;;;16.56;71.46;100484.03;4945322;28;20047;-69
2023/06/15 01:00:12;;;;;;;3.00;2.70;;;;;;;16.56;71.83;100488.50;4947484;28;20565;-69
2023/06/15 01:02:40;;;;;;;4.03;2.80;;;;;;;16.46;72.16;100483.81;4931694;28;20055;-69
2023/06/15 01:05:10;;;;;;;3.53;3.20;;;;;;;16.41;72.38;100491.28;4932494;29;20043;-70
2023/06/15 01:07:40;;;;;;;3.38;2.80;;;;;;;16.39;72.77;100493.22;4928993;29;20535;-69
2023/06/15 01:10:12;;;;;;;3.58;3.10;;;;;;;16.35;73.28;100501.56;4946633;28;20588;-71
2023/06/15 01:12:41;;;;;;;3.40;2.80;;;;;;;16.31;74.11;100494.72;4925865;28;20159;-69
2023/06/15 01:15:08;;;;;;;3.92;3.03;;;;;;;16.28;74.22;100498.47;4926258;28;20524;-72
2023/06/15 01:17:44;;;;;;;3.40;3.03;;;;;;;16.25;74.35;100497.81;4929644;29;20470;-69
2023/06/15 01:20:21;;;;;;;3.40;3.10;;;;;;;16.19;75.03;100484.88;4950230;28;20055;-70
2023/06/15 01:23:05;;;;;;;4.30;3.20;;;;;;;16.19;75.54;100490.22;4949830;28;20604;-70
2023/06/15 01:25:44;;;;;;;5.32;3.30;;;;;;;16.29;74.76;100497.50;4947340;28;20173;-70
2023/06/15 01:28:13;;;;;;;4.82;3.00;;;;;;;16.21;75.47;100497.19;4945730;28;20130;-70
2023/06/15 01:30:43;;;;;;;6.20;3.03;;;;;;;16.19;75.72;100504.44;4947173;28;20051;-70
2023/06/15 01:33:15;;;;;;;4.45;3.00;;;;;;;16.13;75.65;100494.16;4932528;28;20055;-70
2023/06/15 01:35:42;;;;;;;4.28;2.90;;;;;;;16.07;76.41;100486.56;4932160;28;21238;-71
2023/06/15 01:38:10;;;;;;;3.20;2.90;;;;;;;16.02;76.67;100494.91;4948889;28;20047;-69
2023/06/15 01:40:41;;;;;;;4.93;3.20;;;;;;;16.02;77.11;100496.72;4948404;28;20047;-70
2023/06/15 01:43:12;;;;;;;3.58;2.92;;;;;;;16.01;77.32;100492.34;4944553;28;20547;-71
2023/06/15 01:45:40;;;;;;;3.75;3.20;;;;;;;15.96;77.59;100489.13;4928757;28;20116;-70
2023/06/15 01:48:08;;;;;;;3.40;3.10;;;;;;;15.95;77.90;100487.41;4928654;29;20059;-69
2023/06/15 01:50:38;;;;;;;3.60;3.30;;;;;;;15.90;78.44;100486.88;4947079;28;20564;-71
2023/06/15 01:53:04;;;;;;;5.37;3.33;;;;;;;15.91;78.71;100485.88;4931317;29;20490;-70
2023/06/15 01:55:32;;;;;;;4.85;3.60;;;;;;;15.89;79.28;100490.50;4936212;28;20055;-70
2023/06/15 01:58:00;;;;;;;3.92;3.38;;;;;;;15.86;79.36;100486.22;4943033;28;20532;-70
2023/06/15 02:00:28;;;;;;;4.03;3.15;;;;;;;15.89;79.56;100486.03;4931405;28;20791;-70
2023/06/15 02:02:55;;;;;;;4.43;3.22;;;;;;;15.86;79.60;100477.34;4931531;29;20514;-69
2023/06/15 02:05:22;;;;;;;3.72;3.30;;;;;;;15.86;79.44;100482.69;4950471;28;20051;-70
2023/06/15 02:07:48;;;;;;;3.47;3.17;;;;;;;15.83;79.45;100482.91;4940216;28;20053;-69
2023/06/15 02:10:18;;;;;;;4.97;3.45;;;;;;;15.78;79.41;100472.50;4937995;28;20497;-70
2023/06/15 02:12:45;;;;;;;3.33;3.03;;;;;;;15.81;79.50;100479.47;4948570;28;20114;-69
2023/06/15 02:15:14;;;;;;;3.67;3.30;;;;;;;15.81;79.78;100484.81;4920352;28;20058;-69
2023/06/15 02:17:41;;;;;;;3.50;3.15;;;;;;;15.82;80.17;100486.53;4942525;28;20513;-70
2023/06/15 02:20:09;;;;;;;4.97;3.10;;;;;;;15.81;79.47;100484.81;4948288;28;20035;-70
2023/06/15 02:22:36;;;;;;;4.15;3.40;;;;;;;15.76;79.74;100483.28;4948300;28;20051;-70
2023/06/15 02:25:04;;;;;;;3.67;3.38;;;;;;;15.70;80.17;100473.03;4933281;29;20110;-69
2023/06/15 02:27:31;;;;;;;3.65;3.35;;;;;;;15.74;80.01;100477.19;4947663;28;20091;-70
2023/06/15 02:29:58;;;;;;;4.43;3.45;;;;;;;15.74;80.55;100485.22;4948451;28;20436;-69
2023/06/15 02:32:37;;;;;;;4.10;3.45;;;;;;;15.74;80.45;100485.22;4947863;28;20059;-70
2023/06/15 02:35:07;;;;;;;3.92;3.40;;;;;;;15.66;80.99;100484.03;4931449;28;20050;-70
2023/06/15 02:37:34;;;;;;;4.15;3.30;;;;;;;15.58;81.42;100484.53;4925954;28;20481;-71
2023/06/15 02:40:04;;;;;;;4.10;3.40;;;;;;;15.57;81.71;100481.97;4932028;28;23304;-70
2023/06/15 02:42:30;;;;;;;3.92;3.20;;;;;;;15.49;82.83;100473.56;4951067;28;20118;-69
2023/06/15 02:44:57;;;;;;;4.55;3.67;;;;;;;15.43;83.10;100489.03;4948375;28;20074;-69
2023/06/15 02:47:26;;;;;;;3.47;3.17;;;;;;;15.43;83.74;100491.69;4942184;28;20110;-71
2023/06/15 02:49:53;;;;;;;6.03;3.47;;;;;;;15.49;83.74;100490.44;4948660;28;20153;-70
2023/06/15 02:52:21;;;;;;;4.20;3.30;;;;;;;15.47;83.59;100487.00;4932233;29;20275;-70
2023/06/15 02:54:48;;;;;;;5.20;3.33;;;;;;;15.45;83.91;100496.94;4948366;28;20118;-70
2023/06/15 02:57:15;;;;;;;5.40;3.45;;;;;;;15.44;83.79;100496.06;4918485;28;20059;-71
2023/06/15 02:59:41;;;;;;;4.45;3.47;;;;;;;15.38;84.07;100491.16;4949061;28;20129;-69
2023/06/15 03:02:08;;;;;;;7.20;3.88;;;;;;;15.42;84.44;100510.50;4946677;28;20063;-69
2023/06/15 03:04:44;;;;;;;3.78;3.47;;;;;;;15.31;84.76;100492.50;4952136;28;20055;-70
2023/06/15 03:07:16;;;;;;;4.00;3.70;;;;;;;15.18;85.66;100499.59;4931073;28;20054;-70
2023/06/15 03:09:47;;;;;;;5.63;3.80;;;;;;;15.16;86.58;100505.97;4930533;28;20047;-69
2023/06/15 03:12:15;;;;;;;3.75;3.40;;;;;;;15.14;87.12;100510.53;4943974;28;20050;-70
2023/06/15 03:14:49;;;;;;;5.00;3.70;;;;;;;15.05;88.05;100502.19;4946399;28;20070;-69
2023/06/15 03:17:18;;;;;;;3.85;3.50;;;;;;;15.05;88.41;100514.66;4936071;29;20043;-70
2023/06/15 03:19:46;;;;;;;6.00;4.00;;;;;;;15.05;88.03;100512.84;4930544;29;20669;-69
2023/06/15 03:22:14;;;;;;;4.65;4.00;;;;;;;15.08;88.05;100522.47;4927592;29;20097;-69
2023/06/15 03:24:45;;;;;;;5.55;3.92;;;;;;;15.06;88.63;100517.22;4947797;28;20430;-69
2023/06/15 03:27:13;;;;;;;5.55;3.83;;;;;;;15.11;88.53;100516.91;4946820;28;20506;-70
2023/06/15 03:29:39;;;;;;;5.13;3.90;;;;;;;15.16;87.88;100513.97;4950691;28;20051;-70
2023/06/15 03:32:08;;;;;;;3.63;3.33;;;;;;;15.09;87.49;100519.72;4922576;29;20043;-70
2023/06/15 03:34:35;;;;;;;4.07;3.67;;;;;;;15.17;87.56;100529.03;4925931;29;20059;-69
2023/06/15 03:37:02;;;;;;;4.47;3.78;;;;;;;15.22;87.13;100522.44;4910536;29;20130;-69
2023/06/15 03:39:29;;;;;;;4.88;4.05;;;;;;;15.21;86.37;100522.53;4910935;29;20406;-70
2023/06/15 03:41:55;;;;;;;4.05;3.53;;;;;;;15.25;86.33;100524.06;4916856;29;20048;-70
2023/06/15 03:44:22;;;;;;;4.65;3.60;;;;;;;15.26;86.14;100520.44;4915470;29;20060;-70
2023/06/15 03:46:49;;;;;;;4.15;3.65;;;;;;;15.32;86.20;100522.69;4927014;29;20044;-69
2023/06/15 03:49:16;;;;;;;5.00;3.80;;;;;;;15.47;85.49;100536.84;4911222;29;20066;-69
2023/06/15 03:51:44;;;;;;;4.10;3.70;;;;;;;15.53;84.72;100537.34;4926199;29;20052;-69
2023/06/15 03:54:11;;;;;;;4.53;3.67;;;;;;;15.51;83.66;100531.22;4928051;29;20122;-70
2023/06/15 03:56:40;;;;;;;4.18;3.78;;;;;;;15.56;83.39;100528.31;4929029;29;20126;-70
2023/06/15 03:59:06;;;;;;;6.03;4.13;;;;;;;15.58;82.85;100526.41;4930742;29;20048;-70
2023/06/15 04:01:33;;;;;;;5.22;3.47;;;;;;;15.64;82.50;100534.84;4919672;29;20398;-69
2023/06/15 04:04:01;;;;;;;4.20;3.63;;;;;;;15.69;81.94;100524.72;4927848;29;20064;-69
2023/06/15 04:06:28;;;;;;;5.70;4.18;;;;;;;15.76;81.92;100536.69;4927979;29;20050;-70
2023/06/15 04:08:54;;;;;;;4.82;3.70;;;;;;;15.75;82.11;100534.97;4925372;29;20047;-69
2023/06/15 04:11:22;;;;;;;5.45;4.03;;;;;;;15.70;82.62;100526.44;4918171;29;20165;-69
2023/06/15 04:13:48;;;;;;;4.47;3.60;;;;;;;15.74;82.97;100537.78;4909466;29;20067;-69
2023/06/15 04:16:15;;;;;;;5.18;3.75;;;;;;;15.78;81.99;100540.13;4926070;29;20058;-69
2023/06/15 04:18:42;;;;;;;5.25;3.85;;;;;;;15.75;82.54;100543.00;4917236;29;20048;-70
2023/06/15 04:21:09;;;;;;;4.18;3.78;;;;;;;15.76;82.20;100542.03;4907260;29;20078;-70
2023/06/15 04:23:37;;;;;;;6.07;4.38;;;;;;;15.81;81.82;100538.22;4913705;29;20067;-70
2023/06/15 04:26:04;;;;;;;5.57;3.88;;;;;;;15.78;83.00;100548.13;4933931;29;20044;-71
2023/06/15 04:28:31;;;;;;;4.65;3.90;;;;;;;15.84;82.56;100541.53;4917036;29;20040;-69
2023/06/15 04:31:12;;;;;;;4.88;3.95;;;;;;;15.92;82.57;100543.69;4931081;29;20087;-70
2023/06/15 04:33:42;;;;;;;4.55;4.13;;;;;;;15.93;81.75;100548.06;4925561;29;20045;-70
2023/06/15 04:36:13;;;;;;;6.63;4.10;;;;;;;15.93;82.17;100542.72;4934334;29;20079;-71
2023/06/15 04:38:48;;;;;;;4.07;3.60;;;;;;;15.96;82.71;100543.38;4932641;28;20051;-69
2023/06/15 04:41:16;;;;;;;6.75;4.05;;;;;;;16.00;82.23;100544.91;4926257;29;20595;-71
2023/06/15 04:43:43;;;;;;;4.95;3.85;;;;;;;16.03;82.33;100550.03;4949827;28;20055;-69
2023/06/15 04:46:14;;;;;;;4.80;4.10;;;;;;;16.00;82.94;100550.25;4918889;28;20054;-69
2023/06/15 04:48:44;;;;;;;4.68;3.67;;;;;;;16.05;82.24;100550.81;4936271;28;20102;-68
2023/06/15 04:51:11;;;;;;;4.88;4.18;;;;;;;16.07;82.05;100554.19;4932750;28;20063;-71
2023/06/15 04:53:39;;;;;;;4.85;3.95;;;;;;;16.09;81.81;100556.78;4930102;28;20114;-69
2023/06/15 04:56:05;;;;;;;5.47;4.13;;;;;;;16.09;81.86;100549.63;4934301;28;20528;-69
2023/06/15 04:58:32;;;;;;;4.60;3.80;;;;;;;16.14;81.30;100551.97;4949803;28;20050;-70
2023/06/15 05:00:59;;;;;;;4.78;4.28;;;;;;;16.15;81.45;100559.03;4930482;29;20157;-71
2023/06/15 05:03:26;;;;;;;4.45;4.05;;;;;;;16.16;82.58;100555.41;4930836;29;20095;-71
2023/06/15 05:05:53;;;;;;;4.38;3.65;;;;;;;16.29;82.11;100560.78;4932861;28;20043;-69
2023/06/15 05:08:19;;;;;;;4.07;3.67;;;;;;;16.30;81.83;100559.81;4947199;28;20100;-69
2023/06/15 05:10:46;;;;;;;4.05;3.65;;;;;;;16.37;82.11;100558.44;4929532;28;20070;-69
2023/06/15 05:13:13;;;;;;;7.10;4.40;;;;;;;16.43;81.87;100561.53;4942690;28;20102;-70
2023/06/15 05:15:39;;;;;;;7.32;4.40;;;;;;;16.58;79.97;100570.31;4931848;28;20481;-69
2023/06/15 05:18:06;;;;;;;4.63;4.18;;;;;;;16.62;79.53;100565.63;4948949;28;20047;-69
2023/06/15 05:20:33;;;;;;;5.57;3.88;;;;;;;16.67;79.10;100563.53;4943814;28;20141;-70
2023/06/15 05:23:00;;;;;;;4.82;3.90;;;;;;;16.71;80.43;100563.19;4940497;28;20522;-69
2023/06/15 05:25:27;;;;;;;6.90;4.35;;;;;;;16.74;78.95;100570.16;4951428;28;20689;-70
2023/06/15 05:27:55;;;;;;;10.05;4.18;;;;;;;16.79;78.17;100571.56;4934548;28;20050;-70
2023/06/15 05:30:26;;;;;;;4.75;3.78;;;;;;;16.83;79.29;100569.53;4912274;28;20214;-69
2023/06/15 05:32:53;;;;;;;;;;;;;;;16.92;80.19;100571.53;4923230;28;20059;-69
2023/06/15 05:35:20;;;;;;;5.18;4.38;;;;;;;16.92;79.15;100558.16;4944908;28;19923;-69
2023/06/15 05:37:48;;;;;;;4.43;3.85;;;;;;;17.04;78.49;100573.34;4947666;28;20047;-70
2023/06/15 05:40:14;;;;;;;4.70;4.28;;;;;;;17.08;79.03;100561.47;4934825;29;20062;-70
2023/06/15 05:42:41;;;;;;;5.43;4.30;;;;;;;17.14;76.12;100566.38;4941725;28;20047;-69
2023/06/15 05:45:11;;;;;;;5.77;4.33;;;;;;;17.19;77.33;100569.56;4929175;28;20142;-68
2023/06/15 05:47:42;;;;;;;6.78;4.15;;;;;;;17.29;76.73;100576.97;4950229;28;20055;-69
2023/06/15 05:50:10;;;;;;;4.35;3.95;;;;;;;17.34;76.28;100577.47;4935137;28;20055;-70
2023/06/15 05:52:37;;;;;;;4.72;3.70;;;;;;;17.43;75.74;100590.19;4923105;28;20074;-69
2023/06/15 05:55:04;;;;;;;4.43;3.92;;;;;;;17.50;75.41;100592.31;4932823;29;20178;-69
2023/06/15 05:57:31;;;;;;;4.20;3.80;;;;;;;17.56;75.53;100576.78;4949460;28;20553;-70
2023/06/15 05:59:57;;;;;;;5.07;4.45;;;;;;;17.72;76.01;100594.31;4946971;28;20055;-69
2023/06/15 06:02:24;;;;;;;6.32;3.90;;;;;;;17.81;75.32;100593.63;4924337;29;20047;-70
2023/06/15 06:04:51;;;;;;;4.85;3.88;;;;;;;17.93;74.00;100602.59;4931172;29;20055;-70
2023/06/15 06:07:18;;;;;;;5.05;4.22;;;;;;;18.07;73.69;100598.91;4929159;29;20047;-70
2023/06/15 06:09:44;;;;;;;4.43;3.90;;;;;;;18.28;72.64;100610.66;4947744;28;20107;-69
2023/06/15 06:12:13;;;;;;;4.60;4.00;;;;;;;18.49;71.75;100598.31;4928343;28;20090;-69
2023/06/15 06:14:40;;;;;;;5.43;3.85;;;;;;;18.79;70.51;100596.94;4947405;28;20054;-69
2023/06/15 06:17:07;;;;;;;4.97;3.63;;;;;;;19.17;69.68;100608.22;4948118;28;20051;-68
2023/06/15 06:19:57;;;;;;;6.68;4.13;;;;;;;19.69;63.30;100597.81;4934359;29;20047;-69
2023/06/15 06:22:24;;;;;;;4.53;3.60;;;;;;;20.24;60.57;100599.47;4930696;29;20143;-69
2023/06/15 06:24:52;;;;;;;7.68;3.85;;;;;;;20.79;58.49;100597.50;4948672;28;20056;-69
2023/06/15 06:27:19;;;;;;;4.53;3.60;;;;;;;21.32;55.56;100600.91;4949944;28;20055;-70
2023/06/15 06:29:46;;;;;;;6.03;3.80;;;;;;;21.75;53.36;100605.16;4952018;28;20043;-69
2023/06/15 06:32:13;;;;;;;3.90;3.42;;;;;;;22.02;54.07;100594.63;4930828;29;20713;-70
2023/06/15 06:34:40;;;;;;;6.03;3.60;;;;;;;22.34;51.26;100594.34;4950933;28;20149;-69
2023/06/15 06:37:06;;;;;;;58.50;12.25;;;;;;;22.51;52.33;100596.28;4931660;28;20107;-70
2023/06/15 06:39:33;;;;;;;9.55;4.00;;;;;;;22.76;51.47;100597.53;4951841;28;20045;-70
2023/06/15 06:42:00;;;;;;;7.13;3.35;;;;;;;22.91;47.49;100596.13;4944988;28;20137;-70
2023/06/15 06:44:30;;;;;;;8.00;3.47;;;;;;;23.03;48.43;100596.78;4935054;28;20058;-71
2023/06/15 06:46:57;;;;;;;3.67;3.38;;;;;;;23.17;48.41;100596.31;4945705;28;20075;-69
2023/06/15 06:49:24;;;;;;;4.07;3.22;;;;;;;23.53;48.16;100599.16;4935216;29;20138;-71
2023/06/15 06:51:53;;;;;;;6.50;3.50;;;;;;;23.61;46.49;100604.69;4931134;29;20070;-70
2023/06/15 06:54:20;;;;;;;6.10;3.22;;;;;;;23.76;48.45;100606.75;4948813;28;20070;-69
2023/06/15 06:56:46;;;;;;;3.50;3.20;;;;;;;24.01;45.58;100598.88;4944224;28;20516;-70
2023/06/15 06:59:13;;;;;;;6.00;2.72;;;;;;;24.22;44.24;100606.69;4930888;29;20047;-69
2023/06/15 07:01:44;;;;;;;5.72;3.50;;;;;;;24.32;44.68;100610.19;4943830;28;20275;-69
2023/06/15 07:04:10;;;;;;;3.67;3.38;;;;;;;24.42;43.75;100619.06;4927040;29;20506;-69
2023/06/15 07:06:37;;;;;;;5.40;3.10;;;;;;;24.16;44.13;100608.16;4928596;29;20510;-72
2023/06/15 07:09:05;;;;;;;4.53;3.13;;;;;;;23.98;45.66;100612.69;4946650;28;20106;-69
2023/06/15 07:11:32;;;;;;;5.45;3.20;;;;;;;23.98;45.02;100610.84;4929874;29;20426;-69
2023/06/15 07:14:02;;;;;;;3.67;3.38;;;;;;;24.02;45.74;100614.94;4924722;28;20057;-69
2023/06/15 07:16:30;;;;;;;5.68;3.42;;;;;;;24.12;46.23;100602.19;4936724;28;20043;-70
2023/06/15 07:18:58;;;;;;;4.88;2.88;;;;;;;24.13;45.64;100612.00;4930822;28;20061;-69
2023/06/15 07:21:25;;;;;;;3.72;3.20;;;;;;;24.24;45.74;100610.97;4943753;28;20047;-68
2023/06/15 07:23:52;;;;;;;3.30;3.00;;;;;;;24.36;43.35;100608.88;4936030;28;20051;-69
2023/06/15 07:26:20;;;;;;;3.95;3.40;;;;;;;24.33;43.93;100603.78;4927753;29;20046;-69
2023/06/15 07:28:48;;;;;;;5.10;3.20;;;;;;;24.31;42.97;100606.63;4942893;28;20726;-69
2023/06/15 07:31:15;;;;;;;3.50;3.17;;;;;;;24.38;43.79;100604.19;4940133;28;20063;-68
2023/06/15 07:33:42;;;;;;;3.83;3.17;;;;;;;24.46;43.80;100604.22;4932631;28;20088;-69
2023/06/15 07:36:09;;;;;;;3.10;2.80;;;;;;;24.55;41.95;100603.31;4929233;28;20039;-69
2023/06/15 07:38:37;;;;;;;5.28;3.38;;;;;;;24.18;41.47;100599.88;4950518;28;20043;-69
2023/06/15 07:41:04;;;;;;;4.07;3.60;;;;;;;23.97;42.63;100609.13;4946271;28;20047;-69
2023/06/15 07:43:30;;;;;;;5.88;3.10;;;;;;;23.92;43.65;100606.06;4940822;28;20063;-69
2023/06/15 07:45:57;;;;;;;3.17;2.88;;;;;;;24.22;41.52;100598.59;4927672;28;20055;-69
2023/06/15 07:48:24;;;;;;;3.25;2.97;;;;;;;24.54;41.65;100590.78;4944446;28;20058;-69
2023/06/15 07:50:53;;;;;;;3.58;3.10;;;;;;;24.86;41.99;100603.72;4926705;29;20051;-69
2023/06/15 07:53:20;;;;;;;5.97;3.00;;;;;;;25.02;42.85;100605.72;4937205;28;20047;-69
2023/06/15 07:55:47;;;;;;;5.22;3.00;;;;;;;25.16;39.15;100599.69;4950359;28;20061;-70
2023/06/15 07:58:14;;;;;;;5.78;3.05;;;;;;;25.10;39.54;100597.63;4950513;28;20050;-70
2023/06/15 08:00:40;;;;;;;4.38;3.30;;;;;;;25.31;39.22;100594.50;4948224;28;20039;-69
2023/06/15 08:03:07;;;;;;;4.35;3.30;;;;;;;25.29;40.37;100610.09;4944117;28;20456;-69
2023/06/15 08:05:36;;;;;;;3.47;2.92;;;;;;;25.21;41.03;100591.91;4929329;29;20163;-69
2023/06/15 08:08:03;;;;;;;4.88;3.30;;;;;;;25.33;39.82;100604.19;4950755;28;20112;-68
2023/06/15 08:10:32;;;;;;;5.22;3.55;;;;;;;25.32;39.51;100607.06;4950744;28;20481;-70
2023/06/15 08:12:58;;;;;;;6.55;3.60;;;;;;;25.45;39.57;100594.75;4941672;28;20460;-69
2023/06/15 08:15:25;;;;;;;3.92;3.53;;;;;;;25.52;38.13;100600.34;4951556;28;20549;-70
2023/06/15 08:17:52;;;;;;;5.53;3.90;;;;;;;25.47;38.21;100592.72;4931138;29;20071;-69
2023/06/15 08:20:21;;;;;;;5.85;3.45;;;;;;;25.31;39.97;100592.66;4938166;28;20304;-70
2023/06/15 08:22:47;;;;;;;4.75;3.28;;;;;;;25.42;38.89;100596.94;4945606;28;20106;-70
2023/06/15 08:25:15;;;;;;;4.35;3.88;;;;;;;25.12;39.44;100582.03;4923458;29;20138;-69
2023/06/15 08:27:42;;;;;;;4.43;3.65;;;;;;;24.93;39.69;100588.50;4932916;28;20051;-69
2023/06/15 08:30:10;;;;;;;5.47;3.58;;;;;;;24.95;41.25;100596.50;4922663;28;20127;-69
2023/06/15 08:32:37;;;;;;;4.15;3.75;;;;;;;24.93;41.00;100587.66;4931149;29;20051;-68
2023/06/15 08:35:04;;;;;;;5.35;3.88;;;;;;;24.95;40.70;100577.53;4919615;29;20303;-69
2023/06/15 08:37:31;;;;;;;3.85;3.47;;;;;;;24.98;41.00;100588.91;4928964;29;20123;-69
2023/06/15 08:39:58;;;;;;;3.85;3.50;;;;;;;25.01;41.32;100582.34;4928759;29;20086;-69
2023/06/15 08:42:27;;;;;;;6.55;4.15;;;;;;;25.05;39.90;100578.28;4921680;29;21045;-69
2023/06/15 08:44:55;;;;;;;4.20;3.80;;;;;;;25.12;39.60;100587.47;4908535;29;20111;-70
2023/06/15 08:47:21;;;;;;;3.90;3.50;;;;;;;25.16;39.42;100568.03;4930252;29;20130;-70
2023/06/15 08:49:50;;;;;;;4.55;3.45;;;;;;;25.24;39.05;100591.59;4916421;29;20125;-69
2023/06/15 08:52:20;;;;;;;4.70;3.42;;;;;;;25.13;39.97;100578.31;4930190;29;20077;-70
2023/06/15 08:54:51;;;;;;;3.97;3.42;;;;;;;25.23;38.03;100589.03;4919749;28;20087;-70
2023/06/15 08:57:20;;;;;;;4.68;3.60;;;;;;;25.16;38.58;100588.84;4923009;29;20106;-70
2023/06/15 08:59:50;;;;;;;4.32;3.40;;;;;;;25.08;40.24;100576.09;4920642;29;20383;-71
2023/06/15 09:02:21;;;;;;;3.38;3.03;;;;;;;25.30;39.35;100588.25;4930173;29;20146;-70
2023/06/15 09:04:51;;;;;;;4.05;3.65;;;;;;;25.44;39.28;100574.06;4926036;29;20048;-71
2023/06/15 09:07:19;;;;;;;3.95;3.50;;;;;;;25.77;38.20;100582.34;4931459;29;20127;-69
2023/06/15 09:10:26;;;;;;;5.35;3.50;;;;;;;25.75;37.59;100570.81;4913445;29;20051;-69
2023/06/15 09:12:55;;;;;;;3.63;3.33;;;;;;;25.82;37.88;100579.97;4853575;29;20504;-71
2023/06/15 09:15:27;;;;;;;5.35;3.50;;;;;;;25.93;38.10;100578.81;4871814;29;20167;-69
2023/06/15 09:17:59;;;;;;;6.55;3.70;;;;;;;25.97;37.92;100564.75;4898283;29;20642;-69
2023/06/15 09:20:30;;;;;;;4.70;3.88;;;;;;;25.67;38.22;100558.06;4925867;29;20095;-69
2023/06/15 09:23:01;;;;;;;4.47;3.35;;;;;;;25.18;39.53;100571.41;4921108;29;20067;-69
2023/06/15 09:25:33;;;;;;;4.10;3.20;;;;;;;24.93;39.55;100555.16;4911209;29;20051;-68
2023/06/15 09:28:02;;;;;;;5.35;3.72;;;;;;;24.91;40.72;100558.00;4923724;29;20056;-71
2023/06/15 09:30:37;;;;;;;4.70;3.58;;;;;;;24.98;38.21;100569.09;4924921;29;20147;-71
2023/06/15 09:33:23;;;;;;;5.72;3.80;;;;;;;24.67;39.38;100571.41;4899477;28;20054;-70
2023/06/15 09:35:57;;;;;;;6.63;3.85;;;;;;;24.58;40.47;100566.91;4944311;28;20071;-69
2023/06/15 09:38:28;;;;;;;6.22;3.67;;;;;;;24.61;39.25;100569.31;4927890;29;20078;-70
2023/06/15 09:40:55;;;;;;;4.72;3.65;;;;;;;24.33;39.81;100574.88;4945793;28;20047;-69
2023/06/15 09:43:22;;;;;;;4.03;3.30;;;;;;;24.09;39.54;100567.31;4940081;28;20063;-71
2023/06/15 09:45:50;;;;;;;4.88;3.60;;;;;;;23.96;39.86;100572.28;4911287;28;20509;-69
2023/06/15 09:48:21;;;;;;;3.53;3.20;;;;;;;23.89;40.85;100565.78;4935765;28;20437;-69
2023/06/15 09:50:53;;;;;;;4.63;3.35;;;;;;;23.91;41.46;100563.78;4943528;28;20565;-69
2023/06/15 09:53:20;;;;;;;3.80;3.33;;;;;;;23.90;41.02;100559.38;4939437;28;20659;-70
2023/06/15 09:55:48;;;;;;;4.15;3.28;;;;;;;23.85;40.96;100555.44;4942455;28;20051;-70
2023/06/15 09:58:14;;;;;;;3.35;2.97;;;;;;;23.92;39.49;100556.53;4929801;29;20056;-69
2023/06/15 10:00:42;;;;;;;5.28;3.08;;;;;;;23.98;39.30;100564.88;4943679;28;20035;-72
2023/06/15 10:03:15;;;;;;;5.43;3.03;;;;;;;23.94;37.17;100557.19;4946494;28;20051;-71
2023/06/15 10:05:46;;;;;;;5.63;3.00;;;;;;;23.86;36.11;100549.88;4949874;28;20047;-70
2023/06/15 10:08:16;;;;;;;4.28;2.85;;;;;;;23.75;35.78;100564.47;4932772;29;20047;-70
2023/06/15 10:10:43;;;;;;;3.92;2.72;;;;;;;23.79;36.27;100555.03;4928438;28;20410;-72
2023/06/15 10:13:22;;;;;;;4.35;2.55;;;;;;;23.88;35.57;100561.38;4942755;28;20110;-73
2023/06/15 10:15:52;;;;;;;4.88;2.85;;;;;;;23.91;36.20;100558.38;4913276;28;20062;-70
2023/06/15 10:18:22;;;;;;;5.32;3.03;;;;;;;23.97;36.60;100557.75;4928500;29;20687;-71
2023/06/15 10:20:55;;;;;;;6.07;3.00;;;;;;;24.07;37.05;100552.28;4945212;28;20054;-69
2023/06/15 10:23:25;;;;;;;7.10;3.08;;;;;;;24.18;37.01;100545.78;4939877;28;20738;-71
2023/06/15 10:26:08;;;;;;;5.40;3.60;;;;;;;24.37;36.59;100540.22;4926600;28;20061;-71
2023/06/15 10:28:45;;;;;;;3.20;2.88;;;;;;;24.65;36.27;100549.91;4947513;28;20198;-71
2023/06/15 10:31:12;;;;;;;4.50;3.22;;;;;;;24.78;35.46;100542.19;4895619;29;20063;-70
2023/06/15 10:33:52;;;;;;;6.00;3.15;;;;;;;25.01;35.23;100544.41;4929327;29;20158;-71
2023/06/15 10:36:42;;;;;;;5.75;3.30;;;;;;;25.03;33.87;100539.63;4909847;29;20251;-69
2023/06/15 10:39:22;;;;;;;5.10;2.95;;;;;;;25.20;32.92;100532.44;4931558;29;20134;-70
2023/06/15 10:41:55;;;;;;;4.20;2.60;;;;;;;25.44;33.75;100543.41;4933283;29;20146;-71
2023/06/15 10:44:30;;;;;;;4.32;3.03;;;;;;;25.57;32.76;100532.94;4905404;29;20586;-70
2023/06/15 10:47:14;;;;;;;4.45;3.05;;;;;;;25.64;32.56;100533.16;4930375;29;20051;-69
2023/06/15 10:49:52;;;;;;;6.30;3.00;;;;;;;25.76;32.80;100529.97;4922706;29;20063;-70
2023/06/15 10:52:19;;;;;;;3.92;3.28;;;;;;;25.93;32.61;100524.56;4924082;29;20202;-70
2023/06/15 10:54:49;;;;;;;4.38;3.10;;;;;;;26.10;32.92;100529.84;4929485;29;20051;-69
2023/06/15 10:57:19;;;;;;;7.57;3.00;;;;;;;26.27;32.10;100527.13;4918562;29;20055;-69
2023/06/15 10:59:54;;;;;;;3.95;2.70;;;;;;;26.45;33.05;100530.50;4934529;29;20506;-69
2023/06/15 11:02:33;;;;;;;2.92;2.63;;;;;;;26.49;31.08;100529.16;4915701;29;20854;-69
2023/06/15 11:05:08;;;;;;;4.63;2.70;;;;;;;26.39;30.69;100531.22;4897383;29;20349;-69
2023/06/15 11:07:41;;;;;;;6.35;2.72;;;;;;;26.24;31.35;100522.03;4911748;29;20059;-71
2023/06/15 11:10:16;;;;;;;5.40;2.85;;;;;;;26.15;31.14;100516.59;4909308;29;20407;-71
2023/06/15 11:12:46;;;;;;;5.32;2.88;;;;;;;26.31;31.63;100517.63;4912726;29;20044;-71
2023/06/15 11:15:15;;;;;;;5.30;2.60;;;;;;;26.23;31.33;100515.75;4926032;29;20052;-71
2023/06/15 11:17:52;;;;;;;5.65;3.10;;;;;;;26.25;31.48;100500.16;4930654;29;20466;-71
2023/06/15 11:20:42;;;;;;;3.33;2.53;;;;;;;26.30;31.92;100518.66;4930556;29;20044;-70
2023/06/15 11:23:19;;;;;;;5.28;2.88;;;;;;;26.48;30.91;100519.31;4913706;29;20044;-69
2023/06/15 11:25:47;;;;;;;3.95;2.72;;;;;;;26.50;30.50;100518.13;4926897;29;20058;-69
2023/06/15 11:28:17;;;;;;;3.50;2.70;;;;;;;26.70;29.55;100517.75;4926552;29;20058;-69
2023/06/15 11:31:03;;;;;;;4.32;2.58;;;;;;;26.82;29.32;100517.22;4918100;29;20401;-70
2023/06/15 11:33:37;;;;;;;5.93;2.50;;;;;;;26.75;29.71;100496.38;4935449;28;20047;-70